Labette, Kansas
Current Conditions -  °F | °C
As of 1:52 PM on Thursday 27 Nov 2014 (Local Time) from KPPF Reporting Station
Clear Clear  
Wind Chill: 39°   Ceiling: Unl
Heat Index: 42°   Visibility: 10mi
Dew Point: 22°   Wind: 5mph
Humidity: 45%   Direction: NA
Pressure: 30.46"   Gusts: NA
Location:  37.2003°N, 95.1784°W
Report Text: KPPF 271952Z AUTO VRB04KT 10SM CLR 06/M06 A3046 RMK AO2 SLP321 T00561056
Loading
Personal Weather Stations






























Interactive Weather Map New forecast layout! Learn more

10-Day Weather Forecast

Advertisements
Track Severe Weather on mobile